createdAt,value
2022-12-01T00:03:05.369Z,101721.38
2022-12-01T00:08:08.532Z,101718.63
2022-12-01T00:13:11.326Z,101718.45
2022-12-01T00:18:14.040Z,101719.98
2022-12-01T00:23:16.783Z,101727.02
2022-12-01T00:28:19.895Z,101727.71
2022-12-01T00:33:22.710Z,101726.00
2022-12-01T00:38:25.804Z,101725.31
2022-12-01T00:43:28.604Z,101726.69
2022-12-01T00:48:31.509Z,101724.29
2022-12-01T00:53:34.412Z,101719.64
2022-12-01T00:58:37.157Z,101712.77
2022-12-01T01:03:40.026Z,101713.45
2022-12-01T01:08:42.957Z,101712.59
2022-12-01T01:13:45.683Z,101713.44
2022-12-01T01:18:48.814Z,101712.23
2022-12-01T01:23:53.888Z,101702.45
2022-12-01T01:28:59.270Z,101707.92
2022-12-01T01:34:03.529Z,101702.09
2022-12-01T01:39:06.394Z,101702.60
2022-12-01T01:44:46.928Z,101699.00
2022-12-01T01:49:50.105Z,101697.27
2022-12-01T01:54:55.787Z,101701.88
2022-12-01T02:00:07.505Z,101692.10
2022-12-01T02:05:16.797Z,101686.80
2022-12-01T02:10:23.924Z,101689.21
2022-12-01T02:15:39.327Z,101688.89
2022-12-01T02:21:19.448Z,101690.77
2022-12-01T02:26:52.637Z,101693.52
2022-12-01T02:32:23.654Z,101695.23
2022-12-01T02:37:47.669Z,101695.91
2022-12-01T02:43:28.367Z,101698.01
2022-12-01T02:48:36.797Z,101701.79
2022-12-01T02:53:39.699Z,101702.65
2022-12-01T02:58:44.130Z,101701.11
2022-12-01T03:04:18.372Z,101699.72
2022-12-01T03:09:47.277Z,101701.63
2022-12-01T03:15:11.284Z,101697.02
2022-12-01T03:20:28.020Z,101692.91
2022-12-01T03:25:32.470Z,101696.70
2022-12-01T03:30:37.922Z,101688.95
2022-12-01T03:35:54.446Z,101692.03
2022-12-01T03:41:02.094Z,101696.49
2022-12-01T03:46:15.967Z,101699.59
2022-12-01T03:51:33.368Z,101699.93
2022-12-01T03:56:44.748Z,101702.15
2022-12-01T04:01:48.406Z,101704.36
2022-12-01T04:06:51.438Z,101705.73
2022-12-01T04:12:12.867Z,101699.89
2022-12-01T04:17:15.604Z,101699.54
2022-12-01T04:22:19.258Z,101695.91
2022-12-01T04:27:22.263Z,101689.89
2022-12-01T04:32:25.068Z,101689.55
2022-12-01T04:37:27.770Z,101687.50
2022-12-01T04:42:30.515Z,101689.39
2022-12-01T04:47:33.371Z,101689.19
2022-12-01T04:52:37.733Z,101692.61
2022-12-01T04:57:41.652Z,101696.20
2022-12-01T05:02:44.440Z,101694.80
2022-12-01T05:07:47.297Z,101693.43
2022-12-01T05:12:50.244Z,101695.66
2022-12-01T05:17:52.990Z,101692.77
2022-12-01T05:23:06.793Z,101697.05
2022-12-01T05:28:10.426Z,101696.01
2022-12-01T05:33:13.358Z,101696.35
2022-12-01T05:38:16.548Z,101693.27
2022-12-01T05:43:26.922Z,101698.59
2022-12-01T05:48:32.029Z,101704.95
2022-12-01T05:53:34.819Z,101703.05
2022-12-01T05:58:38.091Z,101702.70
2022-12-01T06:03:40.849Z,101704.59
2022-12-01T06:08:43.705Z,101705.98
2022-12-01T06:13:46.474Z,101705.86
2022-12-01T06:18:49.317Z,101705.53
2022-12-01T06:23:52.121Z,101703.99
2022-12-01T06:28:56.563Z,101706.55
2022-12-01T06:33:59.442Z,101712.55
2022-12-01T06:39:06.057Z,101714.42
2022-12-01T06:44:08.940Z,101715.98
2022-12-01T06:49:12.680Z,101715.34
2022-12-01T06:54:17.920Z,101718.98
2022-12-01T06:59:20.674Z,101715.05
2022-12-01T07:04:23.606Z,101710.61
2022-12-01T07:09:26.429Z,101705.64
2022-12-01T07:14:31.072Z,101709.07
2022-12-01T07:19:34.591Z,101712.84
2022-12-01T07:24:37.494Z,101715.78
2022-12-01T07:29:40.397Z,101710.50
2022-12-01T07:34:43.168Z,101721.66
2022-12-01T07:39:45.923Z,101719.08
2022-12-01T07:44:48.702Z,101721.14
2022-12-01T07:49:51.661Z,101718.90
2022-12-01T07:54:54.718Z,101714.28
2022-12-01T07:59:57.927Z,101714.81
2022-12-01T08:05:00.730Z,101716.03
2022-12-01T08:10:04.047Z,101715.35
2022-12-01T08:15:07.783Z,101712.77
2022-12-01T08:20:11.680Z,101709.19
2022-12-01T08:25:15.104Z,101716.23
2022-12-01T08:30:18.013Z,101714.70
2022-12-01T08:35:20.952Z,101718.69
2022-12-01T08:40:23.760Z,101714.23
2022-12-01T08:45:27.043Z,101716.13
2022-12-01T08:50:29.946Z,101718.38
2022-12-01T08:55:32.841Z,101721.64
2022-12-01T09:00:35.621Z,101723.35
2022-12-01T09:05:38.359Z,101722.84
2022-12-01T09:10:42.413Z,101719.23
2022-12-01T09:15:55.453Z,101721.63
2022-12-01T09:20:59.034Z,101720.77
2022-12-01T09:26:01.819Z,101712.70
2022-12-01T09:31:10.144Z,101708.77
2022-12-01T09:36:13.389Z,101704.61
2022-12-01T09:41:21.658Z,101700.96
2022-12-01T09:46:30.746Z,101703.71
2022-12-01T09:51:36.403Z,101696.81
2022-12-01T09:56:47.023Z,101693.69
2022-12-01T10:01:56.138Z,101688.66
2022-12-01T10:07:02.634Z,101689.17
2022-12-01T10:12:17.883Z,101691.38
2022-12-01T10:17:32.731Z,101687.39
2022-12-01T10:22:41.531Z,101686.02
2022-12-01T10:28:04.247Z,101682.05
2022-12-01T10:33:23.515Z,101681.56
2022-12-01T10:38:31.022Z,101678.33
2022-12-01T10:43:47.974Z,101673.48
2022-12-01T10:49:07.519Z,101675.34
2022-12-01T10:54:11.859Z,101670.67
2022-12-01T10:59:36.014Z,101669.63
2022-12-01T11:04:52.436Z,101668.05
2022-12-01T11:10:00.451Z,101670.95
2022-12-01T11:15:06.125Z,101669.90
2022-12-01T11:20:48.637Z,101664.23
2022-12-01T11:26:05.495Z,101663.75
2022-12-01T11:31:10.544Z,101661.35
2022-12-01T11:36:26.470Z,101654.96
2022-12-01T11:41:40.928Z,101651.70
2022-12-01T11:46:50.306Z,101651.41
2022-12-01T11:52:16.872Z,101650.39
2022-12-01T11:57:33.746Z,101646.09
2022-12-01T12:03:03.195Z,101645.44
2022-12-01T12:08:15.129Z,101641.65
2022-12-01T12:13:36.559Z,101635.09
2022-12-01T12:18:42.252Z,101636.65
2022-12-01T12:23:44.999Z,101638.38
2022-12-01T12:29:13.833Z,101632.02
2022-12-01T12:34:46.282Z,101634.65
2022-12-01T12:40:07.279Z,101631.23
2022-12-01T12:45:40.586Z,101627.27
2022-12-01T12:51:10.905Z,101623.14
2022-12-01T12:56:17.884Z,101616.79
2022-12-01T13:01:34.430Z,101614.58
2022-12-01T13:06:43.729Z,101610.65
2022-12-01T13:11:48.969Z,101610.31
2022-12-01T13:16:57.149Z,101608.25
2022-12-01T13:22:01.842Z,101601.04
2022-12-01T13:27:10.793Z,101601.40
2022-12-01T13:32:32.395Z,101602.79
2022-12-01T13:37:37.901Z,101603.15
2022-12-01T13:42:41.075Z,101601.26
2022-12-01T13:47:47.187Z,101604.16
2022-12-01T13:52:50.647Z,101605.72
2022-12-01T13:57:59.187Z,101609.16
2022-12-01T14:03:20.222Z,101602.81
2022-12-01T14:08:27.768Z,101603.35
2022-12-01T14:13:32.836Z,101602.83
2022-12-01T14:19:02.130Z,101598.36
2022-12-01T14:24:07.223Z,101591.66
2022-12-01T14:29:23.675Z,101589.09
2022-12-01T14:34:34.424Z,101591.69
2022-12-01T14:39:40.844Z,101588.43
2022-12-01T14:44:55.282Z,101589.11
2022-12-01T14:50:13.170Z,101585.85
2022-12-01T14:55:26.496Z,101583.45
2022-12-01T15:00:30.506Z,101582.94
2022-12-01T15:05:40.195Z,101583.64
2022-12-01T15:10:59.783Z,101581.77
2022-12-01T15:16:05.922Z,101580.19
2022-12-01T15:21:29.347Z,101580.39
2022-12-01T15:26:46.467Z,101577.99
2022-12-01T15:31:55.957Z,101575.42
2022-12-01T15:37:00.721Z,101579.56
2022-12-01T15:42:04.546Z,101580.40
2022-12-01T15:47:47.283Z,101578.16
2022-12-01T15:52:50.285Z,101572.16
2022-12-01T15:57:53.492Z,101569.93
2022-12-01T16:02:59.507Z,101568.89
2022-12-01T16:08:16.935Z,101569.41
2022-12-01T16:13:57.377Z,101569.41
2022-12-01T16:19:22.300Z,101568.02
2022-12-01T16:24:42.635Z,101575.57
2022-12-01T16:29:53.162Z,101578.99
2022-12-01T16:34:56.625Z,101574.52
2022-12-01T16:39:59.442Z,101578.81
2022-12-01T16:45:02.207Z,101581.54
2022-12-01T16:50:05.712Z,101585.30
2022-12-01T16:55:27.375Z,101590.10
2022-12-01T17:00:30.872Z,101588.34
2022-12-01T17:05:34.348Z,101582.66
2022-12-01T17:10:41.207Z,101589.17
2022-12-01T17:15:46.364Z,101591.04
2022-12-01T17:21:08.349Z,101589.52
2022-12-01T17:26:14.879Z,101585.43
2022-12-01T17:31:17.853Z,101584.23
2022-12-01T17:36:21.029Z,101577.55
2022-12-01T17:41:25.669Z,101569.50
2022-12-01T17:46:29.621Z,101568.13
2022-12-01T17:51:32.502Z,101573.11
2022-12-01T17:56:35.504Z,101572.78
2022-12-01T18:01:38.671Z,101578.61
2022-12-01T18:06:42.134Z,101576.00
2022-12-01T18:11:44.876Z,101572.91
2022-12-01T18:16:47.840Z,101570.17
2022-12-01T18:21:50.893Z,101566.73
2022-12-01T18:26:54.899Z,101566.23
2022-12-01T18:31:59.687Z,101568.62
2022-12-01T18:37:03.233Z,101572.73
2022-12-01T18:42:05.944Z,101574.46
2022-12-01T18:47:08.916Z,101573.43
2022-12-01T18:52:11.862Z,101572.73
2022-12-01T18:57:14.859Z,101578.55
2022-12-01T19:02:18.324Z,101573.58
2022-12-01T19:07:28.057Z,101572.70
2022-12-01T19:12:36.384Z,101569.57
2022-12-01T19:17:42.272Z,101578.10
2022-12-01T19:22:45.150Z,101578.05
2022-12-01T19:27:48.259Z,101584.89
2022-12-01T19:32:51.062Z,101586.20
2022-12-01T19:37:53.832Z,101582.74
2022-12-01T19:42:56.869Z,101583.07
2022-12-01T19:47:59.646Z,101578.59
2022-12-01T19:53:03.168Z,101577.23
2022-12-01T19:58:06.021Z,101578.09
2022-12-01T20:03:08.898Z,101580.81
2022-12-01T20:08:13.986Z,101581.30
2022-12-01T20:13:16.701Z,101586.23
2022-12-01T20:18:19.629Z,101586.37
2022-12-01T20:23:22.352Z,101581.52
2022-12-01T20:28:25.110Z,101580.46
2022-12-01T20:33:28.809Z,101574.81
2022-12-01T20:38:31.786Z,101580.33
2022-12-01T20:43:35.373Z,101579.84
2022-12-01T20:48:38.618Z,101581.33
2022-12-01T20:53:54.667Z,101582.84
2022-12-01T20:59:05.629Z,101578.75
2022-12-01T21:04:08.731Z,101577.58
2022-12-01T21:09:13.668Z,101583.58
2022-12-01T21:14:27.975Z,101589.02
2022-12-01T21:19:46.526Z,101597.55
2022-12-01T21:24:51.989Z,101598.04
2022-12-01T21:29:55.811Z,101596.77
2022-12-01T21:35:13.669Z,101591.74
2022-12-01T21:40:24.136Z,101586.56
2022-12-01T21:45:32.020Z,101589.80
2022-12-01T21:50:34.770Z,101592.87
2022-12-01T21:55:39.068Z,101591.45
2022-12-01T22:00:42.633Z,101593.30
2022-12-01T22:06:01.436Z,101588.30
2022-12-01T22:11:18.803Z,101586.41
2022-12-01T22:16:28.716Z,101579.89
2022-12-01T22:21:32.958Z,101578.65
2022-12-01T22:26:44.580Z,101578.09
2022-12-01T22:31:48.183Z,101577.91
2022-12-01T22:36:51.605Z,101577.02
2022-12-01T22:41:59.622Z,101579.17
2022-12-01T22:47:03.233Z,101574.02
2022-12-01T22:52:28.674Z,101570.36
2022-12-01T22:57:33.391Z,101566.56
2022-12-01T23:02:36.306Z,101566.22
2022-12-01T23:07:42.765Z,101567.23
2022-12-01T23:12:48.482Z,101561.66
2022-12-01T23:17:52.040Z,101560.53
2022-12-01T23:22:57.253Z,101560.32
2022-12-01T23:28:04.735Z,101563.56
2022-12-01T23:33:16.883Z,101560.76
2022-12-01T23:38:24.021Z,101557.79
2022-12-01T23:43:33.475Z,101551.81
2022-12-01T23:48:41.385Z,101546.63
2022-12-01T23:53:44.478Z,101550.38
2022-12-01T23:58:47.836Z,101549.00
